Hasbrouck Heights, New Jersey
Current Conditions -  °F | °C
As of 7:51 AM on Saturday 22 Nov 2014 (Local Time) from KTEB Reporting Station
Clear Clear  
Wind Chill: 18°   Ceiling: Unl
Heat Index: 25°   Visibility: 10mi
Dew Point: 14°   Wind: 6mph
Humidity: 63%   Direction: 210°SSW
Pressure: 30.49"   Gusts: NA
Location:  40.86°N, 74.08°W
Report Text: KTEB 221251Z 21005KT 10SM CLR M04/M10 A3049 RMK AO2 SLP324 T10391100
Loading
Personal Weather Stations






























Interactive Weather Map New forecast layout! Learn more

10-Day Weather Forecast

Advertisements
Track Severe Weather on mobile